Time;durP1;ratioP1;P1;durP2;ratioP2;P2;SDS_P1;SDS_P2;PMS_P1;PMS_P2;Temp;Humidity;BMP_temperature;BMP_pressure;BME280_temperature;BME280_humidity;BME280_pressure;Samples;Min_cycle;Max_cycle;Signal;HPM_P1;HPM_P2
2023/04/04 00:00:38;;;;;;;7.85;3.78;;;3.90;66.30;;;;;;4994057;28;20405;-74
2023/04/04 00:03:04;;;;;;;10.73;3.78;;;3.90;66.30;;;;;;5005686;28;20474;-76
2023/04/04 00:05:30;;;;;;;12.27;3.83;;;3.90;66.20;;;;;;5007083;28;20103;-75
2023/04/04 00:07:56;;;;;;;10.02;3.65;;;3.90;66.20;;;;;;5016042;28;20041;-73
2023/04/04 00:10:21;;;;;;;7.30;3.65;;;3.80;66.20;;;;;;5020457;28;20044;-78
2023/04/04 00:12:47;;;;;;;8.60;3.80;;;3.90;66.20;;;;;;4997098;28;20429;-73
2023/04/04 00:15:13;;;;;;;10.43;4.15;;;3.80;66.20;;;;;;5006310;28;20029;-75
2023/04/04 00:17:39;;;;;;;10.50;4.45;;;3.80;66.20;;;;;;5010357;28;20373;-74
2023/04/04 00:20:05;;;;;;;8.48;3.53;;;3.80;66.40;;;;;;4995299;28;20096;-77
2023/04/04 00:22:31;;;;;;;9.93;3.55;;;3.80;66.50;;;;;;5012679;28;20478;-73
2023/04/04 00:24:57;;;;;;;8.50;3.80;;;3.80;66.60;;;;;;5023444;28;20381;-73
2023/04/04 00:27:23;;;;;;;8.20;4.22;;;3.80;66.90;;;;;;5016058;28;20034;-75
2023/04/04 00:29:49;;;;;;;9.00;3.53;;;3.80;67.00;;;;;;5004127;28;20032;-74
2023/04/04 00:32:15;;;;;;;7.43;3.75;;;3.70;66.80;;;;;;5014885;28;20509;-73
2023/04/04 00:34:41;;;;;;;6.85;3.60;;;3.70;66.90;;;;;;5008898;28;20030;-74
2023/04/04 00:37:06;;;;;;;10.85;4.00;;;3.70;67.30;;;;;;5016407;28;20501;-73
2023/04/04 00:39:33;;;;;;;8.50;3.85;;;3.70;67.40;;;;;;5013427;28;20025;-76
2023/04/04 00:41:59;;;;;;;10.20;4.60;;;3.60;67.50;;;;;;5010230;28;20034;-75
2023/04/04 00:44:25;;;;;;;8.32;3.88;;;3.60;67.50;;;;;;5016822;28;20029;-73
2023/04/04 00:46:51;;;;;;;9.32;4.07;;;3.60;67.30;;;;;;5011528;28;20046;-73
2023/04/04 00:49:17;;;;;;;10.38;4.00;;;3.60;67.20;;;;;;5016833;28;20033;-73
2023/04/04 00:51:43;;;;;;;12.20;4.40;;;3.60;67.20;;;;;;5010995;28;20033;-74
2023/04/04 00:54:09;;;;;;;9.52;4.25;;;3.50;67.00;;;;;;5009894;28;20040;-74
2023/04/04 00:56:38;;;;;;;10.10;4.75;;;3.60;67.20;;;;;;5013678;28;20400;-74
2023/04/04 00:59:05;;;;;;;8.13;4.50;;;3.60;67.10;;;;;;5027977;28;20120;-73
2023/04/04 01:01:31;;;;;;;8.82;3.85;;;3.50;67.40;;;;;;5011355;28;20060;-73
2023/04/04 01:03:57;;;;;;;8.38;3.85;;;3.50;67.40;;;;;;5009844;28;20026;-72
2023/04/04 01:06:23;;;;;;;12.50;4.40;;;3.40;67.60;;;;;;5001583;28;20042;-73
2023/04/04 01:08:51;;;;;;;9.00;3.97;;;3.40;67.80;;;;;;5017562;28;20454;-78
2023/04/04 01:11:17;;;;;;;8.13;3.38;;;3.40;67.90;;;;;;5022105;28;20143;-72
2023/04/04 01:13:43;;;;;;;8.50;3.88;;;3.40;68.10;;;;;;5009184;28;20034;-74
2023/04/04 01:16:09;;;;;;;9.32;4.10;;;3.40;68.40;;;;;;5011392;28;20482;-75
2023/04/04 01:18:35;;;;;;;9.63;4.05;;;3.40;68.20;;;;;;5024646;28;20061;-74
2023/04/04 01:21:06;;;;;;;9.80;4.13;;;3.40;68.20;;;;;;5012957;28;20038;-73
2023/04/04 01:23:43;;;;;;;8.82;3.60;;;3.30;68.20;;;;;;5025042;28;20037;-75
2023/04/04 01:26:09;;;;;;;10.57;3.58;;;3.30;68.30;;;;;;5014929;28;20041;-73
2023/04/04 01:28:35;;;;;;;9.30;3.58;;;3.30;68.40;;;;;;5013389;28;20394;-74
2023/04/04 01:31:04;;;;;;;10.00;3.60;;;3.20;68.40;;;;;;5009147;28;20125;-74
2023/04/04 01:33:42;;;;;;;10.98;4.47;;;3.20;68.50;;;;;;5015199;28;20631;-74
2023/04/04 01:36:31;;;;;;;8.43;3.88;;;3.20;68.60;;;;;;5011019;28;20059;-73
2023/04/04 01:39:17;;;;;;;8.75;4.28;;;3.20;68.60;;;;;;5008086;28;20030;-74
2023/04/04 01:41:44;;;;;;;;;;;3.10;68.70;;;;;;5010558;28;20026;-75
2023/04/04 01:44:10;;;;;;;12.23;4.72;;;3.10;68.80;;;;;;5015093;28;20380;-74
2023/04/04 01:46:36;;;;;;;9.00;4.15;;;3.10;69.00;;;;;;5017348;28;20046;-72
2023/04/04 01:49:01;;;;;;;8.95;3.88;;;3.10;69.00;;;;;;5021235;28;20075;-73
2023/04/04 01:51:28;;;;;;;9.15;4.15;;;3.10;69.10;;;;;;5013259;28;20037;-73
2023/04/04 01:53:54;;;;;;;11.20;4.53;;;3.00;69.30;;;;;;5020901;28;20038;-74
2023/04/04 01:56:20;;;;;;;10.57;4.30;;;3.00;69.40;;;;;;5007571;28;20792;-74
2023/04/04 01:58:46;;;;;;;8.63;4.15;;;3.00;69.40;;;;;;5002254;28;20366;-73
2023/04/04 02:01:11;;;;;;;10.68;5.55;;;3.00;69.60;;;;;;5022522;28;20387;-73
2023/04/04 02:03:37;;;;;;;8.70;3.72;;;3.00;69.60;;;;;;5021186;28;20056;-73
2023/04/04 02:06:03;;;;;;;6.95;3.60;;;3.00;69.60;;;;;;5010610;28;20042;-74
2023/04/04 02:08:28;;;;;;;9.23;4.15;;;3.00;69.90;;;;;;5009415;28;20068;-74
2023/04/04 02:10:57;;;;;;;9.90;4.00;;;3.00;69.90;;;;;;5007567;28;20095;-75
2023/04/04 02:13:23;;;;;;;8.02;4.07;;;3.00;70.20;;;;;;5014037;28;20037;-74
2023/04/04 02:15:50;;;;;;;11.10;4.25;;;2.90;70.00;;;;;;5014876;28;20022;-74
2023/04/04 02:18:16;;;;;;;8.68;4.25;;;2.90;70.20;;;;;;5010308;28;20478;-74
2023/04/04 02:20:41;;;;;;;8.70;3.95;;;2.90;70.40;;;;;;4994660;28;20134;-73
2023/04/04 02:23:07;;;;;;;8.30;4.10;;;2.80;70.50;;;;;;5013486;28;20110;-74
2023/04/04 02:25:32;;;;;;;9.32;4.00;;;2.80;70.70;;;;;;5009558;28;20052;-77
2023/04/04 02:27:58;;;;;;;8.50;4.38;;;2.70;70.70;;;;;;5015607;28;20046;-77
2023/04/04 02:30:24;;;;;;;8.02;3.90;;;2.70;70.70;;;;;;5010772;28;20045;-74
2023/04/04 02:32:50;;;;;;;10.60;4.47;;;2.70;70.70;;;;;;5006513;28;20042;-75
2023/04/04 02:35:16;;;;;;;9.68;4.40;;;2.70;70.90;;;;;;5007648;28;20121;-74
2023/04/04 02:37:45;;;;;;;9.25;4.28;;;2.60;71.10;;;;;;5001268;28;20033;-73
2023/04/04 02:40:11;;;;;;;7.25;3.90;;;2.60;71.10;;;;;;5008192;28;20025;-73
2023/04/04 02:42:40;;;;;;;10.00;4.25;;;2.50;71.20;;;;;;5014036;28;20060;-74
2023/04/04 02:45:07;;;;;;;11.45;4.18;;;2.50;71.30;;;;;;5013913;28;20540;-74
2023/04/04 02:47:32;;;;;;;10.75;4.30;;;2.40;71.40;;;;;;5018180;28;20053;-74
2023/04/04 02:49:58;;;;;;;10.68;4.47;;;2.50;71.50;;;;;;4994181;28;20129;-73
2023/04/04 02:52:24;;;;;;;8.95;4.07;;;2.50;71.50;;;;;;5014420;28;20478;-74
2023/04/04 02:54:49;;;;;;;10.82;4.45;;;2.40;71.70;;;;;;5021378;28;20037;-75
2023/04/04 02:57:15;;;;;;;10.38;4.38;;;2.40;71.70;;;;;;5006622;28;20121;-74
2023/04/04 02:59:41;;;;;;;8.80;4.25;;;2.40;71.80;;;;;;5021769;28;20056;-73
2023/04/04 03:02:07;;;;;;;10.38;3.95;;;2.30;72.00;;;;;;5011498;28;20062;-73
2023/04/04 03:04:32;;;;;;;8.07;3.75;;;2.30;72.10;;;;;;5009733;28;20409;-75
2023/04/04 03:06:58;;;;;;;8.85;4.00;;;2.30;72.10;;;;;;5006692;28;20030;-73
2023/04/04 03:09:24;;;;;;;9.57;3.95;;;2.30;72.20;;;;;;5009338;28;20041;-74
2023/04/04 03:11:50;;;;;;;10.35;4.03;;;2.20;72.20;;;;;;5014663;28;20425;-75
2023/04/04 03:14:16;;;;;;;11.90;4.60;;;2.30;72.40;;;;;;5014228;28;20132;-73
2023/04/04 03:16:42;;;;;;;10.68;4.85;;;2.20;72.30;;;;;;5005071;28;20132;-73
2023/04/04 03:19:08;;;;;;;11.40;4.78;;;2.20;72.50;;;;;;4990779;28;20021;-74
2023/04/04 03:21:33;;;;;;;9.40;4.47;;;2.20;72.60;;;;;;5001800;28;20040;-77
2023/04/04 03:23:59;;;;;;;7.28;4.35;;;2.10;72.80;;;;;;5010651;28;20038;-73
2023/04/04 03:26:27;;;;;;;7.53;4.05;;;2.10;72.90;;;;;;5011038;28;20038;-73
2023/04/04 03:28:52;;;;;;;9.90;4.10;;;2.10;72.80;;;;;;5005908;28;20069;-72
2023/04/04 03:31:18;;;;;;;9.98;4.57;;;2.10;72.90;;;;;;5006140;28;20450;-73
2023/04/04 03:33:44;;;;;;;10.38;4.55;;;2.10;73.00;;;;;;5018960;28;20026;-73
2023/04/04 03:36:12;;;;;;;8.82;4.53;;;2.10;73.10;;;;;;5013156;28;20041;-74
2023/04/04 03:38:38;;;;;;;8.80;4.60;;;2.00;73.30;;;;;;5007006;28;20026;-73
2023/04/04 03:41:06;;;;;;;10.23;4.13;;;1.90;73.30;;;;;;5008392;28;20037;-73
2023/04/04 03:43:32;;;;;;;8.27;4.13;;;1.90;73.20;;;;;;5015949;28;20049;-74
2023/04/04 03:46:04;;;;;;;11.32;4.70;;;1.80;73.40;;;;;;5014395;28;20034;-75
2023/04/04 03:48:30;;;;;;;10.60;4.97;;;1.90;73.50;;;;;;4995571;28;20107;-73
2023/04/04 03:50:57;;;;;;;16.55;5.43;;;1.80;73.70;;;;;;5007046;28;20037;-75
2023/04/04 03:53:23;;;;;;;11.55;5.82;;;1.70;73.90;;;;;;5014815;28;20037;-73
2023/04/04 03:55:49;;;;;;;14.05;5.85;;;1.80;73.80;;;;;;5003402;28;20114;-75
2023/04/04 03:58:15;;;;;;;11.90;5.97;;;1.70;73.90;;;;;;5009780;28;20040;-73
2023/04/04 04:00:41;;;;;;;11.13;6.05;;;1.70;74.00;;;;;;5016307;28;20100;-74
2023/04/04 04:03:07;;;;;;;11.52;5.40;;;1.70;74.00;;;;;;5009679;28;20025;-78
2023/04/04 04:05:32;;;;;;;10.23;5.10;;;1.70;74.10;;;;;;5008708;28;20041;-81
2023/04/04 04:07:58;;;;;;;11.02;5.13;;;1.70;74.10;;;;;;5006353;28;20049;-74
2023/04/04 04:10:24;;;;;;;10.57;5.05;;;1.70;74.20;;;;;;5002856;28;20248;-74
2023/04/04 04:12:49;;;;;;;9.18;5.10;;;1.70;74.30;;;;;;5018762;28;20026;-74
2023/04/04 04:15:15;;;;;;;11.35;5.40;;;1.70;74.40;;;;;;4999156;28;20431;-78
2023/04/04 04:17:41;;;;;;;10.65;5.25;;;1.60;74.40;;;;;;5007412;28;20466;-74
2023/04/04 04:20:08;;;;;;;9.05;4.70;;;1.60;74.60;;;;;;5008795;28;20029;-79
2023/04/04 04:22:34;;;;;;;10.60;5.15;;;1.60;74.60;;;;;;5005690;28;20036;-73
2023/04/04 04:25:00;;;;;;;13.27;5.70;;;1.60;74.70;;;;;;5005260;28;20358;-75
2023/04/04 04:27:26;;;;;;;14.48;5.82;;;1.50;74.80;;;;;;5006857;28;20033;-74
2023/04/04 04:29:52;;;;;;;9.65;5.10;;;1.50;74.90;;;;;;4997034;28;20036;-75
2023/04/04 04:32:18;;;;;;;11.10;5.95;;;1.50;74.90;;;;;;5004235;28;20085;-77
2023/04/04 04:34:44;;;;;;;13.13;5.63;;;1.50;75.00;;;;;;5011705;28;20060;-73
2023/04/04 04:37:09;;;;;;;9.77;5.13;;;1.50;75.00;;;;;;5007289;28;20361;-76
2023/04/04 04:39:35;;;;;;;11.40;6.10;;;1.50;75.10;;;;;;5002936;28;20026;-78
2023/04/04 04:42:02;;;;;;;12.10;5.63;;;1.50;75.00;;;;;;5005805;28;20096;-75
2023/04/04 04:44:27;;;;;;;11.35;5.78;;;1.50;75.00;;;;;;5016241;28;20036;-78
2023/04/04 04:46:53;;;;;;;10.25;5.90;;;1.50;75.00;;;;;;5007234;28;20430;-76
2023/04/04 04:49:19;;;;;;;10.00;5.55;;;1.50;75.00;;;;;;5013750;28;20051;-79
2023/04/04 04:51:45;;;;;;;11.25;5.97;;;1.50;75.00;;;;;;5009505;28;20041;-73
2023/04/04 04:54:10;;;;;;;11.20;6.03;;;1.40;75.10;;;;;;5011892;28;20473;-75
2023/04/04 04:56:36;;;;;;;11.00;6.28;;;1.40;75.10;;;;;;5022611;28;20037;-74
2023/04/04 04:59:02;;;;;;;13.20;6.93;;;1.40;75.20;;;;;;5025791;28;20017;-74
2023/04/04 05:01:28;;;;;;;12.95;5.78;;;1.40;75.20;;;;;;5014850;28;20436;-75
2023/04/04 05:03:54;;;;;;;14.10;5.25;;;1.40;75.20;;;;;;5003660;28;20059;-75
2023/04/04 05:06:20;;;;;;;13.93;6.78;;;1.40;75.10;;;;;;5006361;28;20030;-74
2023/04/04 05:08:46;;;;;;;12.77;6.78;;;1.40;75.20;;;;;;5016248;28;20064;-74
2023/04/04 05:11:11;;;;;;;13.30;6.53;;;1.40;75.30;;;;;;5014638;28;20430;-75
2023/04/04 05:13:39;;;;;;;11.85;6.03;;;1.30;75.30;;;;;;5015526;28;20041;-74
2023/04/04 05:16:04;;;;;;;11.63;6.15;;;1.30;75.50;;;;;;5003326;28;20383;-74
2023/04/04 05:18:30;;;;;;;17.98;5.72;;;1.30;75.60;;;;;;5012639;28;20048;-78
2023/04/04 05:20:56;;;;;;;14.55;7.07;;;1.40;75.40;;;;;;5012930;28;20038;-73
2023/04/04 05:23:22;;;;;;;9.23;5.55;;;1.40;75.30;;;;;;4993488;28;20537;-71
2023/04/04 05:25:50;;;;;;;10.73;7.00;;;1.40;75.30;;;;;;5009761;28;20112;-73
2023/04/04 05:28:16;;;;;;;15.70;10.18;;;1.40;75.30;;;;;;5006843;28;20018;-74
2023/04/04 05:30:41;;;;;;;15.35;10.23;;;1.40;75.30;;;;;;5009228;28;20033;-76
2023/04/04 05:33:07;;;;;;;13.18;8.90;;;1.30;75.40;;;;;;5017720;28;20713;-73
2023/04/04 05:35:33;;;;;;;12.60;8.20;;;1.40;75.60;;;;;;5014595;28;20119;-77
2023/04/04 05:37:59;;;;;;;12.38;8.38;;;1.40;75.60;;;;;;5006396;28;20030;-75
2023/04/04 05:40:24;;;;;;;15.30;9.60;;;1.40;75.50;;;;;;5020599;28;20033;-76
2023/04/04 05:42:57;;;;;;;16.08;9.18;;;1.40;75.50;;;;;;5009947;28;20038;-74
2023/04/04 05:45:24;;;;;;;17.95;10.73;;;1.50;75.50;;;;;;5013861;28;20046;-75
2023/04/04 05:47:50;;;;;;;15.80;9.40;;;1.40;75.20;;;;;;4992729;28;20049;-73
2023/04/04 05:50:16;;;;;;;15.95;8.43;;;1.50;75.20;;;;;;5019472;28;20125;-74
2023/04/04 05:52:42;;;;;;;17.85;8.30;;;1.50;75.20;;;;;;5010804;28;20042;-72
2023/04/04 05:55:08;;;;;;;10.93;6.90;;;1.50;75.20;;;;;;5023075;28;20141;-73
2023/04/04 05:57:34;;;;;;;13.93;7.45;;;1.60;75.00;;;;;;5013791;28;20069;-73
2023/04/04 05:59:59;;;;;;;13.70;7.20;;;1.60;74.80;;;;;;5006695;28;20134;-74
2023/04/04 06:02:25;;;;;;;11.82;7.20;;;1.60;74.70;;;;;;5012837;28;20036;-75
2023/04/04 06:04:51;;;;;;;13.05;7.20;;;1.70;74.60;;;;;;5009456;28;20033;-73
2023/04/04 06:07:17;;;;;;;14.55;8.02;;;1.70;74.30;;;;;;5006645;28;20042;-74
2023/04/04 06:09:43;;;;;;;13.25;6.97;;;1.70;74.30;;;;;;5015142;28;20053;-72
2023/04/04 06:12:09;;;;;;;15.05;8.15;;;1.80;74.40;;;;;;5012858;28;20120;-75
2023/04/04 06:14:35;;;;;;;14.30;8.20;;;1.80;74.30;;;;;;5023607;28;20038;-73
2023/04/04 06:17:02;;;;;;;12.63;7.97;;;1.90;74.30;;;;;;5012736;28;20038;-73
2023/04/04 06:19:27;;;;;;;12.73;7.63;;;1.90;74.10;;;;;;5011653;28;20192;-75
2023/04/04 06:21:53;;;;;;;14.70;6.80;;;2.00;74.20;;;;;;5018350;28;20128;-74
2023/04/04 06:24:19;;;;;;;15.48;7.32;;;2.00;74.00;;;;;;4998986;28;20042;-73
2023/04/04 06:26:45;;;;;;;11.05;6.35;;;2.10;74.00;;;;;;5012306;28;20527;-73
2023/04/04 06:29:11;;;;;;;11.60;7.28;;;2.10;73.90;;;;;;5018305;28;20038;-74
2023/04/04 06:31:36;;;;;;;12.57;6.63;;;2.20;73.70;;;;;;5015797;28;20139;-73
2023/04/04 06:34:02;;;;;;;10.52;6.65;;;2.30;73.40;;;;;;5015569;28;20060;-73
2023/04/04 06:36:28;;;;;;;11.50;6.95;;;2.40;73.10;;;;;;5007067;28;20505;-74
2023/04/04 06:38:54;;;;;;;14.35;6.80;;;2.40;73.00;;;;;;5009161;28;20533;-73
2023/04/04 06:41:19;;;;;;;12.68;6.88;;;2.50;73.00;;;;;;5010457;28;20046;-73
2023/04/04 06:43:47;;;;;;;12.63;6.07;;;2.60;72.60;;;;;;5010018;28;20088;-74
2023/04/04 06:46:13;;;;;;;13.80;8.30;;;2.70;72.10;;;;;;5009964;28;20505;-75
2023/04/04 06:48:38;;;;;;;12.35;6.50;;;2.80;71.90;;;;;;5001224;28;20046;-75
2023/04/04 06:51:06;;;;;;;16.20;9.10;;;2.80;71.40;;;;;;4995197;28;20034;-75
2023/04/04 06:53:33;;;;;;;22.38;14.45;;;2.90;71.60;;;;;;5010127;28;20089;-76
2023/04/04 06:55:59;;;;;;;18.60;11.63;;;3.10;71.60;;;;;;5007232;28;20034;-76
2023/04/04 06:58:24;;;;;;;13.80;7.15;;;3.10;71.00;;;;;;5007359;28;20503;-77
2023/04/04 07:00:50;;;;;;;14.40;6.40;;;3.20;70.60;;;;;;5012490;28;20035;-76
2023/04/04 07:03:16;;;;;;;14.10;6.45;;;3.40;70.30;;;;;;5011959;28;20421;-76
2023/04/04 07:05:42;;;;;;;31.95;17.05;;;3.40;69.40;;;;;;5005104;28;20036;-76
2023/04/04 07:08:08;;;;;;;21.25;12.25;;;3.60;69.80;;;;;;5014768;28;20033;-75
2023/04/04 07:10:34;;;;;;;32.95;20.05;;;3.70;69.30;;;;;;5004399;28;20489;-75
2023/04/04 07:13:00;;;;;;;15.30;7.68;;;3.80;68.60;;;;;;5002972;28;20022;-75
2023/04/04 07:15:26;;;;;;;16.90;7.50;;;4.00;68.40;;;;;;5002816;28;20046;-76
2023/04/04 07:17:53;;;;;;;11.85;6.25;;;4.10;68.00;;;;;;5004877;28;20030;-76
2023/04/04 07:20:18;;;;;;;11.18;6.20;;;4.20;67.20;;;;;;5009207;28;20037;-75
2023/04/04 07:22:44;;;;;;;14.70;9.02;;;4.40;67.20;;;;;;5004911;28;20034;-76
2023/04/04 07:25:12;;;;;;;18.15;7.70;;;4.50;66.80;;;;;;5000161;28;20041;-76
2023/04/04 07:27:39;;;;;;;17.88;10.88;;;4.70;66.70;;;;;;5004092;28;20045;-76
2023/04/04 07:30:06;;;;;;;11.48;6.55;;;4.80;66.10;;;;;;4999709;28;20030;-75
2023/04/04 07:32:31;;;;;;;9.70;5.63;;;4.90;64.70;;;;;;4998232;28;20034;-74
2023/04/04 07:34:57;;;;;;;20.15;11.55;;;4.90;64.70;;;;;;4983169;28;20535;-76
2023/04/04 07:37:25;;;;;;;34.45;24.38;;;5.00;64.90;;;;;;5001838;28;20044;-75
2023/04/04 07:39:51;;;;;;;33.15;23.27;;;5.20;64.90;;;;;;5005573;28;20018;-74
2023/04/04 07:42:26;;;;;;;16.00;8.65;;;5.40;64.30;;;;;;5003770;28;20119;-76
2023/04/04 07:44:52;;;;;;;13.82;7.22;;;5.50;64.00;;;;;;4998395;28;20042;-74
2023/04/04 07:47:19;;;;;;;22.17;13.15;;;5.60;62.60;;;;;;5015844;28;20466;-75
2023/04/04 07:49:45;;;;;;;30.35;20.48;;;5.60;62.90;;;;;;5024922;28;20397;-74
2023/04/04 07:52:11;;;;;;;13.43;8.77;;;5.90;63.60;;;;;;5003563;28;20026;-74
2023/04/04 07:54:39;;;;;;;12.10;5.88;;;6.00;62.10;;;;;;5003702;28;20033;-74
2023/04/04 07:57:05;;;;;;;10.82;5.47;;;6.20;62.30;;;;;;5008603;28;20034;-74
2023/04/04 07:59:31;;;;;;;19.58;11.85;;;6.30;61.60;;;;;;5007275;28;20026;-74
2023/04/04 08:01:57;;;;;;;17.83;9.88;;;6.50;60.90;;;;;;5000993;28;20023;-75
2023/04/04 08:04:23;;;;;;;15.32;8.68;;;6.70;61.30;;;;;;4985732;28;20061;-76
2023/04/04 08:06:49;;;;;;;13.63;8.23;;;6.70;58.90;;;;;;4999562;28;20050;-74
2023/04/04 08:09:15;;;;;;;12.15;7.05;;;6.90;59.90;;;;;;4994789;28;20521;-74
2023/04/04 08:11:40;;;;;;;11.57;5.85;;;7.10;59.30;;;;;;4998800;28;20665;-74
2023/04/04 08:14:06;;;;;;;15.80;7.82;;;7.40;58.80;;;;;;5005403;28;20029;-73
2023/04/04 08:16:32;;;;;;;24.25;14.38;;;7.60;57.00;;;;;;5008953;28;20030;-75
2023/04/04 08:18:59;;;;;;;11.40;5.70;;;7.70;56.50;;;;;;5012925;28;20065;-75
2023/04/04 08:21:25;;;;;;;11.20;5.43;;;7.70;56.00;;;;;;4985762;28;20433;-75
2023/04/04 08:23:50;;;;;;;8.32;4.18;;;7.90;54.40;;;;;;4999714;28;20046;-75
2023/04/04 08:26:16;;;;;;;12.63;5.32;;;7.80;53.90;;;;;;5005520;28;20427;-73
2023/04/04 08:28:42;;;;;;;15.18;7.70;;;7.90;55.10;;;;;;5007543;28;20155;-74
2023/04/04 08:31:09;;;;;;;10.52;4.32;;;8.10;53.60;;;;;;5024952;28;20120;-73
2023/04/04 08:33:34;;;;;;;9.38;5.70;;;8.20;53.40;;;;;;4999554;28;20025;-73
2023/04/04 08:36:00;;;;;;;12.93;5.80;;;8.30;52.50;;;;;;5007958;28;20516;-74
2023/04/04 08:38:26;;;;;;;11.68;5.97;;;8.20;52.80;;;;;;5001650;28;20026;-74
2023/04/04 08:40:52;;;;;;;15.10;8.50;;;8.40;52.30;;;;;;5005997;28;20436;-75
2023/04/04 08:43:20;;;;;;;16.80;8.70;;;8.50;52.10;;;;;;5009774;28;20025;-72
2023/04/04 08:45:49;;;;;;;15.20;4.63;;;8.80;51.30;;;;;;5009098;28;20053;-73
2023/04/04 08:48:16;;;;;;;13.45;7.75;;;8.60;49.30;;;;;;5005066;28;20057;-76
2023/04/04 08:50:43;;;;;;;8.35;4.35;;;8.70;49.60;;;;;;5003607;28;20037;-77
2023/04/04 08:53:10;;;;;;;15.70;8.63;;;8.90;48.70;;;;;;5009442;28;20505;-76
2023/04/04 08:55:40;;;;;;;13.18;7.07;;;8.90;48.20;;;;;;5008646;28;20030;-75
2023/04/04 08:58:06;;;;;;;12.70;6.43;;;9.00;46.90;;;;;;5019607;28;20037;-75
2023/04/04 09:00:31;;;;;;;17.38;9.65;;;9.10;47.50;;;;;;5005074;28;20022;-74
2023/04/04 09:03:25;;;;;;;11.63;5.88;;;9.30;47.30;;;;;;5006365;28;20034;-75
2023/04/04 09:05:52;;;;;;;13.23;6.78;;;9.50;46.10;;;;;;5000815;28;20130;-73
2023/04/04 09:08:18;;;;;;;9.55;4.07;;;9.60;46.20;;;;;;4996801;28;20046;-74
2023/04/04 09:10:44;;;;;;;7.63;3.65;;;9.70;45.10;;;;;;4998185;28;20105;-74
2023/04/04 09:13:10;;;;;;;8.88;3.75;;;9.50;44.40;;;;;;4996446;28;20061;-73
2023/04/04 09:15:42;;;;;;;9.32;3.50;;;9.70;44.40;;;;;;5009551;28;20050;-74
2023/04/04 09:18:08;;;;;;;6.38;3.35;;;9.70;43.60;;;;;;4977519;28;20546;-75
2023/04/04 09:20:41;;;;;;;6.35;3.40;;;8.80;44.30;;;;;;5003535;28;20058;-78
2023/04/04 09:23:11;;;;;;;7.95;3.60;;;8.80;45.50;;;;;;5003190;28;20045;-75
2023/04/04 09:25:49;;;;;;;8.63;3.22;;;9.10;45.30;;;;;;5005537;28;20042;-75
2023/04/04 09:28:15;;;;;;;6.45;3.33;;;9.50;45.10;;;;;;5007490;28;20026;-74
2023/04/04 09:30:42;;;;;;;9.23;3.65;;;9.60;44.20;;;;;;4988712;28;20034;-75
2023/04/04 09:33:11;;;;;;;9.32;3.60;;;9.70;43.60;;;;;;4988739;28;20096;-77
2023/04/04 09:35:38;;;;;;;6.85;3.90;;;9.70;44.30;;;;;;5005685;28;20112;-77
2023/04/04 09:38:07;;;;;;;6.45;3.13;;;9.70;44.00;;;;;;5008313;28;20025;-76
2023/04/04 09:40:39;;;;;;;8.80;3.75;;;9.50;42.60;;;;;;4991753;28;20033;-73
2023/04/04 09:43:07;;;;;;;8.60;3.20;;;9.50;44.30;;;;;;5002633;28;20113;-77
2023/04/04 09:45:34;;;;;;;8.88;3.85;;;9.70;44.50;;;;;;5008101;28;20490;-75
2023/04/04 09:48:01;;;;;;;7.90;3.35;;;9.90;43.50;;;;;;5007108;28;20726;-75
2023/04/04 09:50:29;;;;;;;7.88;3.22;;;10.10;43.00;;;;;;4992278;28;20171;-76
2023/04/04 09:52:59;;;;;;;8.35;3.88;;;10.20;43.30;;;;;;5000258;28;20174;-75
2023/04/04 09:55:36;;;;;;;7.63;3.42;;;10.40;42.10;;;;;;5005685;28;20391;-75
2023/04/04 09:58:16;;;;;;;7.35;3.78;;;10.40;42.00;;;;;;5004426;28;20172;-75
2023/04/04 10:00:47;;;;;;;8.85;4.45;;;10.60;41.70;;;;;;5008997;28;20214;-75
2023/04/04 10:03:17;;;;;;;9.85;4.18;;;10.10;41.80;;;;;;5009851;28;20080;-75
2023/04/04 10:05:46;;;;;;;8.70;3.65;;;9.50;43.70;;;;;;5004132;28;20077;-74
2023/04/04 10:08:21;;;;;;;9.90;4.18;;;9.60;44.10;;;;;;5008378;28;20095;-74
2023/04/04 10:11:06;;;;;;;8.82;4.22;;;8.80;43.90;;;;;;5005822;28;20034;-74
2023/04/04 10:13:39;;;;;;;9.93;5.18;;;9.10;44.80;;;;;;5010538;28;20116;-74
2023/04/04 10:16:05;;;;;;;9.15;3.80;;;9.60;43.40;;;;;;5009138;28;20064;-74
2023/04/04 10:18:34;;;;;;;9.43;4.88;;;9.50;42.80;;;;;;5006333;28;20017;-76
2023/04/04 10:21:05;;;;;;;10.30;4.93;;;9.70;43.10;;;;;;5011748;28;20033;-73
2023/04/04 10:23:33;;;;;;;11.10;4.57;;;9.90;42.70;;;;;;5005905;28;20028;-74
2023/04/04 10:25:59;;;;;;;14.45;8.13;;;10.30;43.70;;;;;;5003257;28;20025;-76
2023/04/04 10:28:27;;;;;;;9.35;5.00;;;10.50;41.70;;;;;;5004424;28;20120;-75
2023/04/04 10:31:05;;;;;;;16.20;10.38;;;10.60;41.50;;;;;;5010586;28;20022;-75
2023/04/04 10:33:49;;;;;;;20.40;8.85;;;11.00;41.80;;;;;;4992676;28;20029;-74
2023/04/04 10:36:23;;;;;;;23.15;12.60;;;11.10;40.50;;;;;;5011829;28;20121;-76
2023/04/04 10:39:13;;;;;;;10.07;4.72;;;11.10;41.30;;;;;;4990034;28;20029;-75
2023/04/04 10:41:40;;;;;;;58.40;29.90;;;11.30;40.30;;;;;;5018484;28;20133;-75
2023/04/04 10:44:36;;;;;;;35.40;17.52;;;11.40;40.40;;;;;;5007226;28;20029;-76
2023/04/04 10:47:13;;;;;;;11.43;6.10;;;11.30;41.10;;;;;;4995462;28;20034;-76
2023/04/04 10:49:48;;;;;;;15.10;7.78;;;11.20;40.80;;;;;;4985344;28;20088;-75
2023/04/04 10:55:37;;;;;;;26.90;12.85;;;11.00;41.10;;;;;;4957491;28;20339;-74
2023/04/04 10:58:04;;;;;;;15.57;7.53;;;11.30;41.60;;;;;;4993491;28;20037;-75
2023/04/04 11:00:30;;;;;;;12.05;5.35;;;11.30;40.60;;;;;;5003204;28;20026;-76
2023/04/04 11:02:59;;;;;;;53.80;25.20;;;11.10;40.90;;;;;;5000526;28;20080;-77
2023/04/04 11:05:33;;;;;;;18.10;7.97;;;11.30;39.50;;;;;;5000438;28;20034;-76
2023/04/04 11:08:00;;;;;;;10.75;5.20;;;11.10;40.00;;;;;;5011953;28;20049;-76
2023/04/04 11:10:32;;;;;;;36.50;17.23;;;11.10;40.60;;;;;;5006267;28;20022;-76
2023/04/04 11:13:06;;;;;;;7.43;4.10;;;11.40;41.00;;;;;;5014118;28;20041;-77
2023/04/04 11:15:46;;;;;;;8.80;3.90;;;11.10;37.60;;;;;;5003030;28;20025;-77
2023/04/04 11:18:12;;;;;;;14.07;7.43;;;10.20;41.00;;;;;;5003713;28;20494;-78
2023/04/04 11:20:44;;;;;;;8.48;4.18;;;10.50;42.00;;;;;;5006063;28;20021;-79
2023/04/04 11:23:19;;;;;;;26.77;12.38;;;10.60;41.10;;;;;;5002612;28;20014;-77
2023/04/04 11:25:55;;;;;;;20.27;10.55;;;11.00;40.70;;;;;;4999523;28;20030;-77
2023/04/04 11:28:33;;;;;;;16.48;7.68;;;11.40;40.60;;;;;;5003600;28;20030;-77
2023/04/04 11:31:20;;;;;;;30.55;14.95;;;11.60;40.00;;;;;;5003577;28;20030;-77
2023/04/04 11:34:04;;;;;;;11.23;5.55;;;11.80;39.80;;;;;;5003164;28;20034;-77
2023/04/04 11:36:35;;;;;;;9.48;4.00;;;11.80;39.50;;;;;;5002166;28;20030;-77
2023/04/04 11:39:23;;;;;;;10.18;4.97;;;11.70;36.90;;;;;;5008938;28;20416;-77
2023/04/04 11:42:03;;;;;;;14.50;8.00;;;11.20;38.80;;;;;;5006457;28;20120;-77
2023/04/04 11:44:31;;;;;;;10.18;4.75;;;10.80;41.30;;;;;;5002698;28;20033;-75
2023/04/04 11:47:05;;;;;;;13.93;6.55;;;11.10;39.90;;;;;;5002090;28;20133;-75
2023/04/04 11:49:39;;;;;;;7.85;4.30;;;11.40;39.00;;;;;;5010236;28;20069;-74
2023/04/04 11:52:09;;;;;;;60.13;26.87;;;10.60;39.70;;;;;;5007219;28;20034;-74
2023/04/04 11:54:40;;;;;;;10.98;5.20;;;11.20;41.80;;;;;;5002641;28;20034;-74
2023/04/04 11:57:13;;;;;;;9.40;4.25;;;11.50;39.40;;;;;;5002545;28;20049;-74
2023/04/04 11:59:44;;;;;;;10.50;4.50;;;10.70;41.00;;;;;;5020273;28;20028;-75
2023/04/04 12:02:11;;;;;;;9.65;4.45;;;11.00;41.60;;;;;;5009215;28;20065;-74
2023/04/04 12:04:39;;;;;;;22.75;10.00;;;10.60;41.30;;;;;;4999823;28;20049;-73
2023/04/04 12:07:06;;;;;;;27.60;11.65;;;10.70;41.90;;;;;;4997159;28;20149;-74
2023/04/04 12:09:33;;;;;;;81.55;34.65;;;11.10;41.30;;;;;;5011188;28;20183;-75
2023/04/04 12:11:59;;;;;;;15.07;5.60;;;11.70;41.30;;;;;;5006249;28;20475;-76
2023/04/04 12:14:26;;;;;;;18.48;9.02;;;11.90;39.40;;;;;;4999936;28;20478;-74
2023/04/04 12:16:54;;;;;;;9.27;4.85;;;12.20;39.70;;;;;;5010218;28;20037;-75
2023/04/04 12:19:24;;;;;;;9.50;4.97;;;12.10;37.80;;;;;;5017099;28;20018;-74
2023/04/04 12:21:51;;;;;;;8.40;4.80;;;12.00;38.70;;;;;;5009086;28;20038;-74
2023/04/04 12:24:17;;;;;;;9.55;4.40;;;11.90;37.80;;;;;;5006602;28;20120;-74
2023/04/04 12:26:45;;;;;;;9.50;4.53;;;11.10;40.10;;;;;;5002053;28;20485;-76
2023/04/04 12:29:12;;;;;;;9.32;4.38;;;10.70;39.70;;;;;;4994220;28;20022;-77
2023/04/04 12:31:41;;;;;;;8.10;4.78;;;10.60;42.00;;;;;;5002966;28;20041;-78
2023/04/04 12:34:27;;;;;;;16.85;7.45;;;10.40;41.30;;;;;;5022987;28;20026;-75
2023/04/04 12:36:55;;;;;;;12.23;6.43;;;10.80;42.20;;;;;;5008142;28;20038;-77
2023/04/04 12:39:24;;;;;;;10.90;7.18;;;11.30;41.40;;;;;;5006627;28;20025;-77
2023/04/04 12:41:53;;;;;;;9.80;4.63;;;11.30;40.50;;;;;;5009814;28;20075;-76
2023/04/04 12:44:30;;;;;;;8.85;4.32;;;11.50;39.00;;;;;;5010632;28;20038;-75
2023/04/04 12:46:59;;;;;;;10.32;5.20;;;10.90;38.70;;;;;;5006184;28;20034;-74
2023/04/04 12:49:29;;;;;;;10.23;5.07;;;11.10;40.90;;;;;;5012531;28;20433;-76
2023/04/04 12:51:55;;;;;;;8.68;5.18;;;11.40;39.90;;;;;;5009579;28;20049;-76
2023/04/04 12:54:28;;;;;;;11.45;6.57;;;11.40;39.40;;;;;;5007554;28;20056;-74